Charade — XH341Q — position and weather

sailwx.info

Track history (hours):
 
Tides and Currents Weather Stations Pressure Air Temp Water Temp Dewpoint Dewpoint Depression Visibility Wind Speed Wind Dir Waves Ship Positions

Charade

Last reported at 2017-Aug-29 22:41 UTC. Time now 2017-Sep-23 06:00 UTC.
Position S 27°40' E 153°22'.
Warning: this ship's position is 24 days out of date.

Length 16 m.

MMSI: 503018210.

Date/timePositionNaut miles runAvg speedWind from/ knotsBaromVisibWave heightAir tempDewpointWater temp
2017-Aug-29 22:41S 27°40' E 153°22'1 6.8
2017-Aug-29 22:30S 27°42' E 153°22'3 6.5
2017-Aug-29 22:00S 27°45' E 153°21'3 5.4
2017-Aug-29 21:30S 27°47' E 153°23'2 4.1
2017-Aug-29 21:00S 27°48' E 153°25'5 0.2
2017-Aug-28 23:49S 27°53' E 153°24'1 0.5
2017-Aug-28 21:52S 27°53' E 153°24'0 0.0
2017-Aug-28 21:10S 27°53' E 153°24'0 0.0
2017-Aug-28 20:43S 27°53' E 153°24'0 0.0
2017-Aug-28 20:22S 27°53' E 153°24'0 0.0
2017-Aug-28 19:52S 27°53' E 153°24'0 0.0
2017-Aug-28 19:28S 27°53' E 153°24'0 0.0
2017-Aug-28 18:58S 27°53' E 153°24'0 0.0
2017-Aug-28 18:25S 27°53' E 153°24'0 0.0
2017-Aug-28 17:40S 27°53' E 153°24'0 0.0
2017-Aug-28 17:28S 27°53' E 153°24'0 0.0
2017-Aug-28 16:55S 27°53' E 153°24'0 0.0
2017-Aug-28 16:22S 27°53' E 153°24'0 0.0
2017-Aug-28 15:58S 27°53' E 153°24'0 0.0
2017-Aug-28 14:04S 27°53' E 153°24'0 0.0
2017-Aug-28 13:52S 27°53' E 153°24'0 0.0
2017-Aug-27 18:52S 27°53' E 153°24'0 0.0
2017-Aug-27 18:22S 27°53' E 153°24'  
2017-Aug-24 14:13S 27°53' E 153°24'0 0.0
2017-Aug-24 08:29S 27°53' E 153°24'0 0.0
2017-Aug-24 06:53S 27°53' E 153°24'0 0.0
2017-Aug-24 06:29S 27°53' E 153°24'0 0.0
2017-Aug-24 05:59S 27°53' E 153°24'0 0.0
2017-Aug-24 05:29S 27°53' E 153°24'0 0.0
2017-Aug-24 04:59S 27°53' E 153°24'0 0.0
2017-Aug-24 04:29S 27°53' E 153°24'0 0.0
2017-Aug-24 03:59S 27°53' E 153°24'0 0.0
2017-Aug-23 22:17S 27°53' E 153°24'0 0.0
2017-Aug-23 21:59S 27°53' E 153°24'0 0.0
2017-Aug-23 21:26S 27°53' E 153°24'0 0.0
2017-Aug-23 20:53S 27°53' E 153°24'0 0.0
2017-Aug-23 20:23S 27°52' E 153°24'0 0.0
2017-Aug-23 19:56S 27°53' E 153°24'0 0.0
2017-Aug-23 19:23S 27°53' E 153°24'0 0.0
2017-Aug-23 18:59S 27°53' E 153°24'0 0.0
2017-Aug-23 18:29S 27°53' E 153°24'0 0.0
2017-Aug-23 16:23S 27°53' E 153°24'0 0.0
2017-Aug-23 15:50S 27°53' E 153°24'0 0.0
2017-Aug-23 15:29S 27°53' E 153°24'0 0.0
2017-Aug-23 14:59S 27°53' E 153°24'0 0.0
2017-Aug-23 13:56S 27°52' E 153°24'0 0.0
2017-Aug-23 13:29S 27°52' E 153°24'0 0.0
2017-Aug-23 12:59S 27°53' E 153°24'0 0.0
2017-Aug-23 12:20S 27°53' E 153°24'0 0.0
2017-Aug-23 11:59S 27°53' E 153°24'0 0.0
2017-Aug-23 11:29S 27°53' E 153°24'0 0.0
2017-Aug-23 10:53S 27°53' E 153°24'0 0.0
2017-Aug-23 10:29S 27°53' E 153°24'0 0.0
2017-Aug-23 09:53S 27°53' E 153°24'0 0.0
2017-Aug-23 09:26S 27°53' E 153°24'0 0.0
2017-Aug-23 08:47S 27°52' E 153°24'0 0.0
2017-Aug-23 08:17S 27°53' E 153°24'0 0.0
2017-Aug-23 07:59S 27°53' E 153°24'0 0.0
2017-Aug-23 06:44S 27°53' E 153°24'0 0.0
2017-Aug-23 06:26S 27°53' E 153°24'0 0.0
2017-Aug-23 05:59S 27°53' E 153°24'0 0.0
2017-Aug-23 05:29S 27°53' E 153°24'0 0.0
2017-Aug-23 04:53S 27°53' E 153°24'0 0.0
2017-Aug-23 03:44S 27°53' E 153°24'0 0.0
2017-Aug-23 01:17S 27°53' E 153°24'0 0.0
2017-Aug-23 00:53S 27°53' E 153°24'0 0.0
2017-Aug-23 00:29S 27°53' E 153°24'0 0.0
2017-Aug-22 21:23S 27°53' E 153°24'0 0.0
2017-Aug-22 20:59S 27°53' E 153°24'0 0.0
2017-Aug-22 19:59S 27°53' E 153°24'0 0.0
2017-Aug-22 14:50S 27°53' E 153°24'0 0.0
2017-Aug-22 07:52S 27°53' E 153°24'0 0.0
2017-Aug-22 07:28S 27°53' E 153°24'0 0.0
2017-Aug-22 06:46S 27°53' E 153°24'0 0.0
2017-Aug-22 05:16S 27°53' E 153°24'0 0.0
2017-Aug-22 04:58S 27°53' E 153°24'0 0.0
2017-Aug-22 04:25S 27°53' E 153°24'0 0.0
2017-Aug-22 03:58S 27°53' E 153°24'0 0.0
2017-Aug-22 03:01S 27°53' E 153°24'0 0.0
2017-Aug-22 02:52S 27°53' E 153°24'0 0.0
2017-Aug-22 02:28S 27°53' E 153°24'0 0.0
2017-Aug-22 01:58S 27°53' E 153°24'0 0.0
2017-Aug-22 01:28S 27°53' E 153°24'0 0.0
2017-Aug-22 00:49S 27°53' E 153°24'0 0.0
2017-Aug-22 00:10S 27°53' E 153°24'0 0.0
2017-Aug-21 23:58S 27°53' E 153°24'0 0.0
2017-Aug-21 23:28S 27°53' E 153°24'0 0.0
2017-Aug-21 22:58S 27°52' E 153°24'0 0.0
2017-Aug-21 22:25S 27°53' E 153°24'0 0.0
2017-Aug-21 21:58S 27°53' E 153°24'0 0.0
2017-Aug-21 21:25S 27°53' E 153°24'0 0.0
2017-Aug-21 20:58S 27°53' E 153°24'0 0.0
2017-Aug-21 20:28S 27°52' E 153°24'0 0.0
2017-Aug-21 19:52S 27°53' E 153°24'0 0.0
2017-Aug-21 19:22S 27°53' E 153°24'0 0.0
2017-Aug-21 18:50S 27°53' E 153°24'0 0.0
2017-Aug-21 18:14S 27°53' E 153°24'0 0.0
2017-Aug-21 17:59S 27°53' E 153°24'0 0.0
2017-Aug-21 17:23S 27°53' E 153°24'0 0.0
2017-Aug-21 16:47S 27°53' E 153°24'0 0.0
2017-Aug-21 16:29S 27°53' E 153°24'0 0.0
2017-Aug-21 15:59S 27°53' E 153°24'0 0.0
2017-Aug-21 15:29S 27°53' E 153°24'0 0.0
2017-Aug-21 14:53S 27°53' E 153°24'0 0.0
2017-Aug-21 14:29S 27°53' E 153°24'0 0.0
2017-Aug-21 13:50S 27°53' E 153°24'0 0.0
2017-Aug-21 13:29S 27°53' E 153°24'0 0.0
2017-Aug-21 12:59S 27°53' E 153°24'0 0.0
2017-Aug-21 12:23S 27°53' E 153°24'0 0.0
2017-Aug-21 11:59S 27°53' E 153°24'0 0.0
2017-Aug-21 11:29S 27°53' E 153°24'0 0.0
2017-Aug-21 10:23S 27°53' E 153°24'0 0.0
2017-Aug-21 09:50S 27°53' E 153°24'0 0.0
2017-Aug-21 09:29S 27°53' E 153°24'0 0.0
2017-Aug-21 07:50S 27°53' E 153°24'0 0.0
2017-Aug-21 07:26S 27°53' E 153°24'0 0.0
2017-Aug-21 06:59S 27°53' E 153°24'0 0.0
2017-Aug-21 06:29S 27°53' E 153°24'0 0.0
2017-Aug-21 05:56S 27°53' E 153°24'0 0.0
2017-Aug-21 05:29S 27°53' E 153°24'0 0.0
2017-Aug-21 04:59S 27°53' E 153°24'0 0.0
2017-Aug-21 04:23S 27°53' E 153°24'0 0.0
2017-Aug-21 03:59S 27°53' E 153°24'0 0.0
2017-Aug-21 03:26S 27°53' E 153°24'0 0.0
2017-Aug-21 01:56S 27°53' E 153°24'0 0.0
2017-Aug-21 01:29S 27°53' E 153°24'0 0.0
2017-Aug-21 00:56S 27°53' E 153°24'0 0.0
2017-Aug-21 00:26S 27°53' E 153°24'0 0.0
2017-Aug-20 23:56S 27°53' E 153°24'0 0.0
2017-Aug-20 23:14S 27°53' E 153°24'0 0.0
2017-Aug-20 22:59S 27°53' E 153°24'0 0.0
2017-Aug-20 22:23S 27°53' E 153°24'0 0.0
2017-Aug-20 21:59S 27°53' E 153°24'0 0.0
2017-Aug-20 21:26S 27°53' E 153°24'0 0.0
2017-Aug-20 20:50S 27°53' E 153°24'0 0.0
2017-Aug-20 20:29S 27°53' E 153°24'0 0.0
2017-Aug-20 13:36S 27°53' E 153°24'0 0.0
2017-Aug-20 13:30S 27°53' E 153°24'0 0.0
2017-Aug-20 13:00S 27°53' E 153°24'0 0.0
2017-Aug-20 12:30S 27°53' E 153°24'0 0.0
2017-Aug-20 11:42S 27°53' E 153°24'0 0.0
2017-Aug-20 11:18S 27°53' E 153°24'0 0.0
2017-Aug-20 10:57S 27°53' E 153°24'0 0.0
2017-Aug-20 10:30S 27°53' E 153°24'0 0.0
2017-Aug-20 09:57S 27°53' E 153°24'0 0.0
2017-Aug-20 09:30S 27°53' E 153°24'0 0.0
2017-Aug-20 08:54S 27°52' E 153°24'0 0.0
2017-Aug-20 08:30S 27°53' E 153°24'0 0.0
2017-Aug-20 07:42S 27°53' E 153°24'0 0.0
2017-Aug-20 07:27S 27°53' E 153°24'0 0.0
2017-Aug-20 06:48S 27°53' E 153°24'0 0.0
2017-Aug-20 06:27S 27°53' E 153°24'0 0.0
2017-Aug-20 06:00S 27°53' E 153°24'0 0.0
2017-Aug-20 05:30S 27°53' E 153°24'0 0.0
2017-Aug-20 04:54S 27°53' E 153°24'0 0.0
2017-Aug-20 04:27S 27°53' E 153°24'0 0.0
2017-Aug-20 03:51S 27°53' E 153°24'0 0.0
2017-Aug-20 03:30S 27°53' E 153°24'0 0.0
2017-Aug-20 02:12S 27°53' E 153°24'0 0.0
2017-Aug-20 02:00S 27°53' E 153°24'0 0.0
2017-Aug-19 23:54S 27°53' E 153°24'0 0.0
2017-Aug-19 23:30S 27°53' E 153°24'0 0.0
2017-Aug-19 22:57S 27°53' E 153°24'  
Track history (hours):
 
Tides and Currents Weather Stations Pressure Air Temp Water Temp Dewpoint Dewpoint Depression Visibility Wind Speed Wind Dir Waves Ship Positions

Charade

Last reported at 2017-Aug-29 22:41 UTC. Time now 2017-Sep-23 06:00 UTC.
Position S 27°40' E 153°22'.
Warning: this ship's position is 24 days out of date.

Length 16 m.

MMSI: 503018210.

Date/timePositionNaut miles runAvg speedWind from/ knotsBaromVisibWave heightAir tempDewpointWater temp
2017-Aug-29 22:41S 27°40' E 153°22'1 6.8
2017-Aug-29 22:30S 27°42' E 153°22'3 6.5
2017-Aug-29 22:00S 27°45' E 153°21'3 5.4
2017-Aug-29 21:30S 27°47' E 153°23'2 4.1
2017-Aug-29 21:00S 27°48' E 153°25'5 0.2
2017-Aug-28 23:49S 27°53' E 153°24'1 0.5
2017-Aug-28 21:52S 27°53' E 153°24'0 0.0
2017-Aug-28 21:10S 27°53' E 153°24'0 0.0
2017-Aug-28 20:43S 27°53' E 153°24'0 0.0
2017-Aug-28 20:22S 27°53' E 153°24'0 0.0
2017-Aug-28 19:52S 27°53' E 153°24'0 0.0
2017-Aug-28 19:28S 27°53' E 153°24'0 0.0
2017-Aug-28 18:58S 27°53' E 153°24'0 0.0
2017-Aug-28 18:25S 27°53' E 153°24'0 0.0
2017-Aug-28 17:40S 27°53' E 153°24'0 0.0
2017-Aug-28 17:28S 27°53' E 153°24'0 0.0
2017-Aug-28 16:55S 27°53' E 153°24'0 0.0
2017-Aug-28 16:22S 27°53' E 153°24'0 0.0
2017-Aug-28 15:58S 27°53' E 153°24'0 0.0
2017-Aug-28 14:04S 27°53' E 153°24'0 0.0
2017-Aug-28 13:52S 27°53' E 153°24'0 0.0
2017-Aug-27 18:52S 27°53' E 153°24'0 0.0
2017-Aug-27 18:22S 27°53' E 153°24'  
2017-Aug-24 14:13S 27°53' E 153°24'0 0.0
2017-Aug-24 08:29S 27°53' E 153°24'0 0.0
2017-Aug-24 06:53S 27°53' E 153°24'0 0.0
2017-Aug-24 06:29S 27°53' E 153°24'0 0.0
2017-Aug-24 05:59S 27°53' E 153°24'0 0.0
2017-Aug-24 05:29S 27°53' E 153°24'0 0.0
2017-Aug-24 04:59S 27°53' E 153°24'0 0.0
2017-Aug-24 04:29S 27°53' E 153°24'0 0.0
2017-Aug-24 03:59S 27°53' E 153°24'0 0.0
2017-Aug-23 22:17S 27°53' E 153°24'0 0.0
2017-Aug-23 21:59S 27°53' E 153°24'0 0.0
2017-Aug-23 21:26S 27°53' E 153°24'0 0.0
2017-Aug-23 20:53S 27°53' E 153°24'0 0.0
2017-Aug-23 20:23S 27°52' E 153°24'0 0.0
2017-Aug-23 19:56S 27°53' E 153°24'0 0.0
2017-Aug-23 19:23S 27°53' E 153°24'0 0.0
2017-Aug-23 18:59S 27°53' E 153°24'0 0.0
2017-Aug-23 18:29S 27°53' E 153°24'0 0.0
2017-Aug-23 16:23S 27°53' E 153°24'0 0.0
2017-Aug-23 15:50S 27°53' E 153°24'0 0.0
2017-Aug-23 15:29S 27°53' E 153°24'0 0.0
2017-Aug-23 14:59S 27°53' E 153°24'0 0.0
2017-Aug-23 13:56S 27°52' E 153°24'0 0.0
2017-Aug-23 13:29S 27°52' E 153°24'0 0.0
2017-Aug-23 12:59S 27°53' E 153°24'0 0.0
2017-Aug-23 12:20S 27°53' E 153°24'0 0.0
2017-Aug-23 11:59S 27°53' E 153°24'0 0.0
2017-Aug-23 11:29S 27°53' E 153°24'0 0.0
2017-Aug-23 10:53S 27°53' E 153°24'0 0.0
2017-Aug-23 10:29S 27°53' E 153°24'0 0.0
2017-Aug-23 09:53S 27°53' E 153°24'0 0.0
2017-Aug-23 09:26S 27°53' E 153°24'0 0.0
2017-Aug-23 08:47S 27°52' E 153°24'0 0.0
2017-Aug-23 08:17S 27°53' E 153°24'0 0.0
2017-Aug-23 07:59S 27°53' E 153°24'0 0.0
2017-Aug-23 06:44S 27°53' E 153°24'0 0.0
2017-Aug-23 06:26S 27°53' E 153°24'0 0.0
2017-Aug-23 05:59S 27°53' E 153°24'0 0.0
2017-Aug-23 05:29S 27°53' E 153°24'0 0.0
2017-Aug-23 04:53S 27°53' E 153°24'0 0.0
2017-Aug-23 03:44S 27°53' E 153°24'0 0.0
2017-Aug-23 01:17S 27°53' E 153°24'0 0.0
2017-Aug-23 00:53S 27°53' E 153°24'0 0.0
2017-Aug-23 00:29S 27°53' E 153°24'0 0.0
2017-Aug-22 21:23S 27°53' E 153°24'0 0.0
2017-Aug-22 20:59S 27°53' E 153°24'0 0.0
2017-Aug-22 19:59S 27°53' E 153°24'0 0.0
2017-Aug-22 14:50S 27°53' E 153°24'0 0.0
2017-Aug-22 07:52S 27°53' E 153°24'0 0.0
2017-Aug-22 07:28S 27°53' E 153°24'0 0.0
2017-Aug-22 06:46S 27°53' E 153°24'0 0.0
2017-Aug-22 05:16S 27°53' E 153°24'0 0.0
2017-Aug-22 04:58S 27°53' E 153°24'0 0.0
2017-Aug-22 04:25S 27°53' E 153°24'0 0.0
2017-Aug-22 03:58S 27°53' E 153°24'0 0.0
2017-Aug-22 03:01S 27°53' E 153°24'0 0.0
2017-Aug-22 02:52S 27°53' E 153°24'0 0.0
2017-Aug-22 02:28S 27°53' E 153°24'0 0.0
2017-Aug-22 01:58S 27°53' E 153°24'0 0.0
2017-Aug-22 01:28S 27°53' E 153°24'0 0.0
2017-Aug-22 00:49S 27°53' E 153°24'0 0.0
2017-Aug-22 00:10S 27°53' E 153°24'0 0.0
2017-Aug-21 23:58S 27°53' E 153°24'0 0.0
2017-Aug-21 23:28S 27°53' E 153°24'0 0.0
2017-Aug-21 22:58S 27°52' E 153°24'0 0.0
2017-Aug-21 22:25S 27°53' E 153°24'0 0.0
2017-Aug-21 21:58S 27°53' E 153°24'0 0.0
2017-Aug-21 21:25S 27°53' E 153°24'0 0.0
2017-Aug-21 20:58S 27°53' E 153°24'0 0.0
2017-Aug-21 20:28S 27°52' E 153°24'0 0.0
2017-Aug-21 19:52S 27°53' E 153°24'0 0.0
2017-Aug-21 19:22S 27°53' E 153°24'0 0.0
2017-Aug-21 18:50S 27°53' E 153°24'0 0.0
2017-Aug-21 18:14S 27°53' E 153°24'0 0.0
2017-Aug-21 17:59S 27°53' E 153°24'0 0.0
2017-Aug-21 17:23S 27°53' E 153°24'0 0.0
2017-Aug-21 16:47S 27°53' E 153°24'0 0.0
2017-Aug-21 16:29S 27°53' E 153°24'0 0.0
2017-Aug-21 15:59S 27°53' E 153°24'0 0.0
2017-Aug-21 15:29S 27°53' E 153°24'0 0.0
2017-Aug-21 14:53S 27°53' E 153°24'0 0.0
2017-Aug-21 14:29S 27°53' E 153°24'0 0.0
2017-Aug-21 13:50S 27°53' E 153°24'0 0.0
2017-Aug-21 13:29S 27°53' E 153°24'0 0.0
2017-Aug-21 12:59S 27°53' E 153°24'0 0.0
2017-Aug-21 12:23S 27°53' E 153°24'0 0.0
2017-Aug-21 11:59S 27°53' E 153°24'0 0.0
2017-Aug-21 11:29S 27°53' E 153°24'0 0.0
2017-Aug-21 10:23S 27°53' E 153°24'0 0.0
2017-Aug-21 09:50S 27°53' E 153°24'0 0.0
2017-Aug-21 09:29S 27°53' E 153°24'0 0.0
2017-Aug-21 07:50S 27°53' E 153°24'0 0.0
2017-Aug-21 07:26S 27°53' E 153°24'0 0.0
2017-Aug-21 06:59S 27°53' E 153°24'0 0.0
2017-Aug-21 06:29S 27°53' E 153°24'0 0.0
2017-Aug-21 05:56S 27°53' E 153°24'0 0.0
2017-Aug-21 05:29S 27°53' E 153°24'0 0.0
2017-Aug-21 04:59S 27°53' E 153°24'0 0.0
2017-Aug-21 04:23S 27°53' E 153°24'0 0.0
2017-Aug-21 03:59S 27°53' E 153°24'0 0.0
2017-Aug-21 03:26S 27°53' E 153°24'0 0.0
2017-Aug-21 01:56S 27°53' E 153°24'0 0.0
2017-Aug-21 01:29S 27°53' E 153°24'0 0.0
2017-Aug-21 00:56S 27°53' E 153°24'0 0.0
2017-Aug-21 00:26S 27°53' E 153°24'0 0.0
2017-Aug-20 23:56S 27°53' E 153°24'0 0.0
2017-Aug-20 23:14S 27°53' E 153°24'0 0.0
2017-Aug-20 22:59S 27°53' E 153°24'0 0.0
2017-Aug-20 22:23S 27°53' E 153°24'0 0.0
2017-Aug-20 21:59S 27°53' E 153°24'0 0.0
2017-Aug-20 21:26S 27°53' E 153°24'0 0.0
2017-Aug-20 20:50S 27°53' E 153°24'0 0.0
2017-Aug-20 20:29S 27°53' E 153°24'0 0.0
2017-Aug-20 13:36S 27°53' E 153°24'0 0.0
2017-Aug-20 13:30S 27°53' E 153°24'0 0.0
2017-Aug-20 13:00S 27°53' E 153°24'0 0.0
2017-Aug-20 12:30S 27°53' E 153°24'0 0.0
2017-Aug-20 11:42S 27°53' E 153°24'0 0.0
2017-Aug-20 11:18S 27°53' E 153°24'0 0.0
2017-Aug-20 10:57S 27°53' E 153°24'0 0.0
2017-Aug-20 10:30S 27°53' E 153°24'0 0.0
2017-Aug-20 09:57S 27°53' E 153°24'0 0.0
2017-Aug-20 09:30S 27°53' E 153°24'0 0.0
2017-Aug-20 08:54S 27°52' E 153°24'0 0.0
2017-Aug-20 08:30S 27°53' E 153°24'0 0.0
2017-Aug-20 07:42S 27°53' E 153°24'0 0.0
2017-Aug-20 07:27S 27°53' E 153°24'0 0.0
2017-Aug-20 06:48S 27°53' E 153°24'0 0.0
2017-Aug-20 06:27S 27°53' E 153°24'0 0.0
2017-Aug-20 06:00S 27°53' E 153°24'0 0.0
2017-Aug-20 05:30S 27°53' E 153°24'0 0.0
2017-Aug-20 04:54S 27°53' E 153°24'0 0.0
2017-Aug-20 04:27S 27°53' E 153°24'0 0.0
2017-Aug-20 03:51S 27°53' E 153°24'0 0.0
2017-Aug-20 03:30S 27°53' E 153°24'0 0.0
2017-Aug-20 02:12S 27°53' E 153°24'0 0.0
2017-Aug-20 02:00S 27°53' E 153°24'0 0.0
2017-Aug-19 23:54S 27°53' E 153°24'0 0.0
2017-Aug-19 23:30S 27°53' E 153°24'0 0.0
2017-Aug-19 22:57S 27°53' E 153°24'  

Dump ship's entire track history